Time,TemperatureF,DewpointF,PressureIn,WindDirection,WindDirectionDegrees,WindSpeedMPH,WindSpeedGustMPH,Humidity,HourlyPrecipIn,Conditions,Clouds,dailyrainin,SolarRadiationWatts/m^2,SoftwareType,DateUTC
2013-10-20 00:01:00,39.8,37.9,29.98,North,-999,0.0,0.0,93,0.00,,,-99.99,0,WeatherLink 6.0.3,2013-10-20 04:01:00,
2013-10-20 00:03:00,39.8,38.2,29.98,West,279,0.0,0.0,94,0.00,,,0.00,0,Wunderground v.1.15,2013-10-20 04:03:00,
2013-10-20 00:04:00,39.8,38.2,29.98,West,279,0.0,0.0,94,0.00,,,0.00,0,Wunderground v.1.15,2013-10-20 04:04:00,
2013-10-20 00:08:00,39.7,38.1,29.98,West,279,0.0,0.0,94,0.00,,,0.00,0,Wunderground v.1.15,2013-10-20 04:08:00,
2013-10-20 00:14:00,39.6,38.0,29.98,West,279,0.0,0.0,94,0.00,,,0.00,0,Wunderground v.1.15,2013-10-20 04:14:00,
2013-10-20 00:16:00,39.6,38.0,29.98,West,279,0.0,0.0,94,0.00,,,0.00,0,Wunderground v.1.15,2013-10-20 04:16:00,
2013-10-20 00:21:00,39.5,37.9,29.98,West,279,0.0,0.0,94,0.00,,,0.00,0,Wunderground v.1.15,2013-10-20 04:21:00,
2013-10-20 00:26:00,39.3,37.7,29.98,West,279,0.0,0.0,94,0.00,,,0.00,0,Wunderground v.1.15,2013-10-20 04:26:00,
2013-10-20 00:31:00,39.3,37.7,29.98,West,279,0.0,0.0,94,0.00,,,0.00,0,Wunderground v.1.15,2013-10-20 04:31:00,
2013-10-20 00:37:00,39.1,37.5,29.98,West,279,0.0,0.0,94,0.00,,,0.00,0,Wunderground v.1.15,2013-10-20 04:37:00,
2013-10-20 00:42:00,39.0,37.4,29.98,West,279,0.0,0.0,94,0.00,,,0.00,0,Wunderground v.1.15,2013-10-20 04:42:00,
2013-10-20 00:47:00,38.9,37.3,29.98,West,279,0.0,0.0,94,0.00,,,0.00,0,Wunderground v.1.15,2013-10-20 04:47:00,
2013-10-20 00:52:00,38.9,37.3,29.98,West,279,0.0,0.0,94,0.00,,,0.00,0,Wunderground v.1.15,2013-10-20 04:52:00,
2013-10-20 00:58:00,39.0,37.7,29.98,West,279,0.0,0.0,95,0.00,,,0.00,0,Wunderground v.1.15,2013-10-20 04:58:00,
2013-10-20 01:04:00,39.1,37.8,29.98,West,279,0.0,0.0,95,0.00,,,0.00,0,Wunderground v.1.15,2013-10-20 05:04:00,
2013-10-20 01:10:00,39.0,37.7,29.98,West,279,0.0,0.0,95,0.00,,,0.00,0,Wunderground v.1.15,2013-10-20 05:10:00,
2013-10-20 01:16:00,38.9,37.6,29.98,West,279,0.0,0.0,95,0.00,,,0.00,0,Wunderground v.1.15,2013-10-20 05:16:00,
2013-10-20 01:21:00,38.9,37.6,29.98,West,279,0.0,0.0,95,0.00,,,0.00,0,Wunderground v.1.15,2013-10-20 05:21:00,
2013-10-20 01:27:00,38.8,37.5,29.98,West,279,0.0,0.0,95,0.00,,,0.00,0,Wunderground v.1.15,2013-10-20 05:27:00,
2013-10-20 01:32:00,38.7,37.4,29.98,West,279,0.0,0.0,95,0.00,,,0.00,0,Wunderground v.1.15,2013-10-20 05:32:00,
2013-10-20 01:38:00,38.7,37.4,29.98,West,279,0.0,0.0,95,0.00,,,0.00,0,Wunderground v.1.15,2013-10-20 05:38:00,
2013-10-20 01:43:00,38.8,37.5,29.98,West,278,0.0,0.0,95,0.00,,,0.00,0,Wunderground v.1.15,2013-10-20 05:43:00,
2013-10-20 01:48:00,38.9,37.6,29.98,West,278,0.0,0.0,95,0.00,,,0.00,0,Wunderground v.1.15,2013-10-20 05:48:00,
2013-10-20 01:54:00,38.9,37.6,29.99,West,278,0.0,0.0,95,0.00,,,0.00,0,Wunderground v.1.15,2013-10-20 05:54:00,
2013-10-20 02:00:00,38.8,37.5,29.99,West,278,0.0,0.0,95,0.00,,,0.00,0,Wunderground v.1.15,2013-10-20 06:00:00,
2013-10-20 02:05:00,38.7,37.4,29.99,West,278,0.0,0.0,95,0.00,,,0.00,0,Wunderground v.1.15,2013-10-20 06:05:00,
2013-10-20 02:10:00,38.7,37.4,29.99,West,278,0.0,0.0,95,0.00,,,0.00,0,Wunderground v.1.15,2013-10-20 06:10:00,
2013-10-20 02:16:00,38.7,37.4,29.99,West,278,0.0,0.0,95,0.00,,,0.00,0,Wunderground v.1.15,2013-10-20 06:16:00,
2013-10-20 02:22:00,38.5,37.2,29.99,West,278,0.0,0.0,95,0.00,,,0.00,0,Wunderground v.1.15,2013-10-20 06:22:00,
2013-10-20 02:28:00,38.4,37.1,29.99,West,278,0.0,0.0,95,0.00,,,0.00,0,Wunderground v.1.15,2013-10-20 06:28:00,
2013-10-20 02:34:00,38.4,37.1,29.99,West,278,0.0,0.0,95,0.00,,,0.00,0,Wunderground v.1.15,2013-10-20 06:34:00,
2013-10-20 02:40:00,38.2,36.9,29.99,West,278,0.0,0.0,95,0.00,,,0.00,0,Wunderground v.1.15,2013-10-20 06:40:00,
2013-10-20 02:46:00,38.0,36.7,29.99,West,278,0.0,0.0,95,0.00,,,0.00,0,Wunderground v.1.15,2013-10-20 06:46:00,
2013-10-20 02:51:00,37.9,36.6,29.99,West,278,0.0,0.0,95,0.00,,,0.00,0,Wunderground v.1.15,2013-10-20 06:51:00,
2013-10-20 02:57:00,37.7,36.4,29.99,West,278,0.0,0.0,95,0.00,,,0.00,0,Wunderground v.1.15,2013-10-20 06:57:00,
2013-10-20 03:03:00,37.4,36.1,29.99,West,278,0.0,0.0,95,0.00,,,0.00,0,Wunderground v.1.15,2013-10-20 07:03:00,
2013-10-20 03:09:00,37.2,35.9,29.99,West,278,0.0,0.0,95,0.00,,,0.00,0,Wunderground v.1.15,2013-10-20 07:09:00,
2013-10-20 03:15:00,37.1,35.8,29.99,West,278,0.0,0.0,95,0.00,,,0.00,0,Wunderground v.1.15,2013-10-20 07:15:00,
2013-10-20 03:20:00,37.1,35.8,29.99,West,278,0.0,0.0,95,0.00,,,0.00,0,Wunderground v.1.15,2013-10-20 07:20:00,
2013-10-20 03:26:00,37.0,35.7,29.99,West,278,0.0,0.0,95,0.00,,,0.00,0,Wunderground v.1.15,2013-10-20 07:26:00,
2013-10-20 03:32:00,36.9,35.6,29.99,West,278,0.0,0.0,95,0.00,,,0.00,0,Wunderground v.1.15,2013-10-20 07:32:00,
2013-10-20 03:37:00,36.9,35.6,29.99,West,278,0.0,0.0,95,0.00,,,0.00,0,Wunderground v.1.15,2013-10-20 07:37:00,
2013-10-20 03:43:00,36.9,35.6,29.99,West,278,0.0,0.0,95,0.00,,,0.00,0,Wunderground v.1.15,2013-10-20 07:43:00,
2013-10-20 03:49:00,36.9,35.9,29.99,West,278,0.0,0.0,96,0.00,,,0.00,0,Wunderground v.1.15,2013-10-20 07:49:00,
2013-10-20 03:54:00,36.8,35.8,29.99,West,278,0.0,0.0,96,0.00,,,0.00,0,Wunderground v.1.15,2013-10-20 07:54:00,
2013-10-20 04:00:00,36.8,35.8,29.99,West,278,0.0,0.0,96,0.00,,,0.00,0,Wunderground v.1.15,2013-10-20 08:00:00,
2013-10-20 04:06:00,36.9,35.9,29.99,West,278,0.0,0.0,96,0.00,,,0.00,0,Wunderground v.1.15,2013-10-20 08:06:00,
2013-10-20 04:12:00,37.0,36.0,29.99,West,278,0.0,0.0,96,0.00,,,0.00,0,Wunderground v.1.15,2013-10-20 08:12:00,
2013-10-20 04:17:00,37.1,36.1,29.99,West,278,0.0,0.0,96,0.00,,,0.00,0,Wunderground v.1.15,2013-10-20 08:17:00,
2013-10-20 04:23:00,37.3,36.3,29.99,West,278,0.0,0.0,96,0.00,,,0.00,0,Wunderground v.1.15,2013-10-20 08:23:00,
2013-10-20 04:28:00,37.4,36.4,29.99,West,278,0.0,0.0,96,0.00,,,0.00,0,Wunderground v.1.15,2013-10-20 08:28:00,
2013-10-20 04:34:00,37.4,36.4,29.99,West,278,0.0,0.0,96,0.00,,,0.00,0,Wunderground v.1.15,2013-10-20 08:34:00,
2013-10-20 04:40:00,37.4,36.4,29.99,West,278,0.0,0.0,96,0.00,,,0.00,0,Wunderground v.1.15,2013-10-20 08:40:00,
2013-10-20 04:45:00,37.4,36.4,29.99,West,278,0.0,0.0,96,0.00,,,0.00,0,Wunderground v.1.15,2013-10-20 08:45:00,
2013-10-20 04:50:00,37.5,36.5,29.99,West,278,0.0,0.0,96,0.00,,,0.00,0,Wunderground v.1.15,2013-10-20 08:50:00,
2013-10-20 04:56:00,37.4,36.4,29.99,West,278,0.0,0.0,96,0.00,,,0.00,0,Wunderground v.1.15,2013-10-20 08:56:00,
2013-10-20 05:02:00,37.5,36.5,29.99,West,278,0.0,0.0,96,0.00,,,0.00,0,Wunderground v.1.15,2013-10-20 09:02:00,
2013-10-20 05:07:00,37.4,36.4,29.99,West,278,0.0,0.0,96,0.00,,,0.00,0,Wunderground v.1.15,2013-10-20 09:07:00,
2013-10-20 05:13:00,37.2,36.2,30.00,West,278,0.0,0.0,96,0.00,,,0.00,0,Wunderground v.1.15,2013-10-20 09:13:00,
2013-10-20 05:19:00,37.0,36.0,30.00,West,278,0.0,0.0,96,0.00,,,0.00,0,Wunderground v.1.15,2013-10-20 09:19:00,
2013-10-20 05:25:00,36.7,35.7,30.00,West,278,0.0,0.0,96,0.00,,,0.00,0,Wunderground v.1.15,2013-10-20 09:25:00,
2013-10-20 05:30:00,36.5,35.5,30.00,West,278,0.0,0.0,96,0.00,,,0.00,0,Wunderground v.1.15,2013-10-20 09:30:00,
2013-10-20 05:36:00,36.2,35.2,30.00,West,278,0.0,0.0,96,0.00,,,0.00,0,Wunderground v.1.15,2013-10-20 09:36:00,
2013-10-20 05:42:00,36.1,35.1,30.00,West,278,0.0,0.0,96,0.00,,,0.00,0,Wunderground v.1.15,2013-10-20 09:42:00,
2013-10-20 05:47:00,36.0,35.0,30.00,West,278,0.0,0.0,96,0.00,,,0.00,0,Wunderground v.1.15,2013-10-20 09:47:00,
2013-10-20 05:53:00,36.1,35.1,30.00,West,278,0.0,0.0,96,0.00,,,0.00,0,Wunderground v.1.15,2013-10-20 09:53:00,
2013-10-20 05:59:00,36.0,35.0,30.00,West,278,0.0,0.0,96,0.00,,,0.00,0,Wunderground v.1.15,2013-10-20 09:59:00,
2013-10-20 06:05:00,35.9,34.9,30.00,West,278,0.0,0.0,96,0.00,,,0.00,0,Wunderground v.1.15,2013-10-20 10:05:00,
2013-10-20 06:10:00,36.0,35.0,30.01,West,278,0.0,0.0,96,0.00,,,0.00,0,Wunderground v.1.15,2013-10-20 10:10:00,
2013-10-20 06:16:00,36.1,35.1,30.01,West,278,0.0,0.0,96,0.00,,,0.00,0,Wunderground v.1.15,2013-10-20 10:16:00,
2013-10-20 06:21:00,36.1,35.1,30.01,West,278,0.0,0.0,96,0.00,,,0.00,0,Wunderground v.1.15,2013-10-20 10:21:00,
2013-10-20 06:27:00,36.0,35.0,30.01,West,278,0.0,0.0,96,0.00,,,0.00,0,Wunderground v.1.15,2013-10-20 10:27:00,
2013-10-20 06:33:00,36.0,35.0,30.01,West,278,0.0,0.0,96,0.00,,,0.00,0,Wunderground v.1.15,2013-10-20 10:33:00,
2013-10-20 06:38:00,36.0,35.0,30.01,West,278,0.0,0.0,96,0.00,,,0.00,0,Wunderground v.1.15,2013-10-20 10:38:00,
2013-10-20 06:44:00,36.0,35.0,30.01,West,278,0.0,0.0,96,0.00,,,0.00,0,Wunderground v.1.15,2013-10-20 10:44:00,
2013-10-20 06:50:00,36.0,35.0,30.02,West,278,0.0,0.0,96,0.00,,,0.00,0,Wunderground v.1.15,2013-10-20 10:50:00,
2013-10-20 06:55:00,35.9,34.9,30.02,West,278,0.0,0.0,96,0.00,,,0.00,0,Wunderground v.1.15,2013-10-20 10:55:00,
2013-10-20 07:01:00,35.9,34.9,30.02,West,270,0.0,1.0,96,0.00,,,-99.99,0,WeatherLink 6.0.3,2013-10-20 11:01:00,
2013-10-20 07:07:00,35.8,34.8,30.02,West,278,0.0,0.0,96,0.00,,,0.00,0,Wunderground v.1.15,2013-10-20 11:07:00,
2013-10-20 07:12:00,35.8,34.8,30.02,West,278,0.0,0.0,96,0.00,,,0.00,0,Wunderground v.1.15,2013-10-20 11:12:00,
2013-10-20 07:18:00,35.8,34.8,30.02,West,278,0.0,0.0,96,0.00,,,0.00,0,Wunderground v.1.15,2013-10-20 11:18:00,
2013-10-20 07:24:00,35.9,34.9,30.02,West,278,0.0,0.0,96,0.00,,,0.00,0,Wunderground v.1.15,2013-10-20 11:24:00,
2013-10-20 07:30:00,35.8,34.8,30.02,West,278,0.0,0.0,96,0.00,,,0.00,0,Wunderground v.1.15,2013-10-20 11:30:00,
2013-10-20 07:35:00,35.9,34.9,30.02,West,278,0.0,0.0,96,0.00,,,0.00,0,Wunderground v.1.15,2013-10-20 11:35:00,
2013-10-20 07:41:00,36.1,35.3,30.02,West,278,0.0,0.0,97,0.00,,,0.00,5,Wunderground v.1.15,2013-10-20 11:41:00,
2013-10-20 07:47:00,36.2,35.2,30.02,West,278,0.0,0.0,96,0.00,,,0.00,7,Wunderground v.1.15,2013-10-20 11:47:00,
2013-10-20 07:52:00,36.3,35.3,30.03,West,278,0.0,0.0,96,0.00,,,0.00,11,Wunderground v.1.15,2013-10-20 11:52:00,
2013-10-20 07:58:00,36.4,35.4,30.03,West,278,0.0,0.0,96,0.00,,,0.00,12,Wunderground v.1.15,2013-10-20 11:58:00,
2013-10-20 08:04:00,36.7,35.9,30.03,West,278,0.0,1.0,97,0.00,,,0.00,16,Wunderground v.1.15,2013-10-20 12:04:00,
2013-10-20 08:09:00,36.9,36.1,30.03,West,278,0.0,1.0,97,0.00,,,0.00,19,Wunderground v.1.15,2013-10-20 12:09:00,
2013-10-20 08:15:00,37.1,36.3,30.03,West,278,0.0,0.0,97,0.00,,,0.00,25,Wunderground v.1.15,2013-10-20 12:15:00,
2013-10-20 08:21:00,37.8,37.0,30.03,West,278,0.0,0.0,97,0.00,,,0.01,26,Wunderground v.1.15,2013-10-20 12:21:00,
2013-10-20 08:27:00,38.4,37.6,30.04,West,278,0.0,0.0,97,0.00,,,0.01,28,Wunderground v.1.15,2013-10-20 12:27:00,
2013-10-20 08:33:00,39.3,38.5,30.04,West,278,0.0,0.0,97,0.00,,,0.01,30,Wunderground v.1.15,2013-10-20 12:33:00,
2013-10-20 08:39:00,39.9,39.1,30.05,West,278,0.0,0.0,97,0.00,,,0.01,32,Wunderground v.1.15,2013-10-20 12:39:00,
2013-10-20 08:44:00,40.3,39.5,30.05,West,278,0.0,0.0,97,0.00,,,0.01,32,Wunderground v.1.15,2013-10-20 12:44:00,
2013-10-20 08:50:00,40.7,39.9,30.05,West,278,0.0,0.0,97,0.00,,,0.01,35,Wunderground v.1.15,2013-10-20 12:50:00,
2013-10-20 08:56:00,41.2,40.4,30.05,West,278,0.0,0.0,97,0.00,,,0.01,37,Wunderground v.1.15,2013-10-20 12:56:00,
2013-10-20 09:02:00,41.6,40.8,30.05,West,278,0.0,0.0,97,0.00,,,0.01,42,Wunderground v.1.15,2013-10-20 13:02:00,
2013-10-20 09:08:00,41.9,41.1,30.05,West,278,0.0,0.0,97,0.00,,,0.01,46,Wunderground v.1.15,2013-10-20 13:08:00,
2013-10-20 09:13:00,42.2,41.4,30.05,West,278,0.0,0.0,97,0.00,,,0.01,51,Wunderground v.1.15,2013-10-20 13:13:00,
2013-10-20 09:18:00,42.6,41.8,30.05,West,276,0.0,0.0,97,0.00,,,0.01,69,Wunderground v.1.15,2013-10-20 13:18:00,
2013-10-20 09:23:00,42.8,42.0,30.05,West,276,0.0,0.0,97,0.00,,,0.01,58,Wunderground v.1.15,2013-10-20 13:23:00,
2013-10-20 09:29:00,43.1,42.3,30.05,West,275,0.0,0.0,97,0.00,,,0.01,67,Wunderground v.1.15,2013-10-20 13:29:00,
2013-10-20 09:35:00,43.5,42.4,30.05,West,275,0.0,0.0,96,0.00,,,0.01,47,Wunderground v.1.15,2013-10-20 13:35:00,
2013-10-20 09:40:00,43.8,42.5,30.06,West,275,0.0,0.0,95,0.00,,,0.01,102,Wunderground v.1.15,2013-10-20 13:40:00,
2013-10-20 09:46:00,44.5,43.2,30.06,WSW,243,0.0,1.0,95,0.00,,,0.01,125,Wunderground v.1.15,2013-10-20 13:46:00,
2013-10-20 09:52:00,45.3,43.4,30.06,WSW,240,0.0,1.0,93,0.00,,,0.01,148,Wunderground v.1.15,2013-10-20 13:52:00,
2013-10-20 09:58:00,46.0,43.5,30.06,SW,223,0.0,1.0,91,0.00,,,0.01,160,Wunderground v.1.15,2013-10-20 13:58:00,
2013-10-20 10:04:00,46.7,43.9,30.06,SW,223,0.0,0.0,90,0.00,,,0.01,171,Wunderground v.1.15,2013-10-20 14:04:00,
2013-10-20 10:09:00,47.2,43.8,30.06,SW,214,0.0,0.0,88,0.00,,,0.01,179,Wunderground v.1.15,2013-10-20 14:09:00,
2013-10-20 10:15:00,47.8,43.8,30.06,SW,215,0.0,0.0,86,0.00,,,0.01,188,Wunderground v.1.15,2013-10-20 14:15:00,
2013-10-20 10:21:00,48.4,44.4,30.06,SW,215,0.0,0.0,86,0.00,,,0.01,193,Wunderground v.1.15,2013-10-20 14:21:00,
2013-10-20 10:26:00,48.9,44.9,30.06,SW,215,0.0,0.0,86,0.00,,,0.01,202,Wunderground v.1.15,2013-10-20 14:26:00,
2013-10-20 10:31:00,49.4,45.1,30.06,SW,215,0.0,1.0,85,0.00,,,0.01,214,Wunderground v.1.15,2013-10-20 14:31:00,
2013-10-20 10:37:00,49.9,44.6,30.06,SW,215,1.0,4.0,82,0.00,,,0.01,234,Wunderground v.1.15,2013-10-20 14:37:00,
2013-10-20 10:43:00,50.0,44.4,30.06,SW,220,1.0,1.0,81,0.00,,,0.01,258,Wunderground v.1.15,2013-10-20 14:43:00,
2013-10-20 10:49:00,50.3,44.4,30.06,SSW,192,0.0,3.0,80,0.00,,,0.01,281,Wunderground v.1.15,2013-10-20 14:49:00,
2013-10-20 10:55:00,50.8,45.2,30.06,SSW,201,1.0,3.0,81,0.00,,,0.01,316,Wunderground v.1.15,2013-10-20 14:55:00,
2013-10-20 11:00:00,51.1,44.1,30.06,SW,219,1.0,1.0,77,0.00,,,0.01,336,Wunderground v.1.15,2013-10-20 15:00:00,
2013-10-20 11:06:00,51.4,44.4,30.06,SSW,196,1.0,3.0,77,0.00,,,0.01,366,Wunderground v.1.15,2013-10-20 15:06:00,
2013-10-20 11:12:00,51.7,44.7,30.06,SW,232,1.0,1.0,77,0.00,,,0.01,396,Wunderground v.1.15,2013-10-20 15:12:00,
2013-10-20 11:17:00,52.1,45.1,30.06,SW,223,1.0,2.0,77,0.00,,,0.01,415,Wunderground v.1.15,2013-10-20 15:17:00,
2013-10-20 11:23:00,52.7,45.3,30.06,SW,235,0.0,3.0,76,0.00,,,0.01,427,Wunderground v.1.15,2013-10-20 15:23:00,
2013-10-20 11:29:00,53.1,45.7,30.06,SSW,211,1.0,3.0,76,0.00,,,0.01,443,Wunderground v.1.15,2013-10-20 15:29:00,
2013-10-20 11:34:00,53.6,44.4,30.06,WSW,241,1.0,2.0,71,0.00,,,0.01,450,Wunderground v.1.15,2013-10-20 15:34:00,
2013-10-20 11:40:00,53.8,45.0,30.06,WSW,248,1.0,1.0,72,0.00,,,0.01,464,Wunderground v.1.15,2013-10-20 15:40:00,
2013-10-20 11:46:00,54.3,45.5,30.06,WNW,285,1.0,1.0,72,0.00,,,0.01,475,Wunderground v.1.15,2013-10-20 15:46:00,
2013-10-20 11:51:00,54.8,45.2,30.06,WNW,286,0.0,1.0,70,0.00,,,0.01,483,Wunderground v.1.15,2013-10-20 15:51:00,
2013-10-20 11:57:00,55.0,44.2,30.06,South,181,1.0,2.0,67,0.00,,,0.01,496,Wunderground v.1.15,2013-10-20 15:57:00,
2013-10-20 12:03:00,54.9,44.9,30.06,WSW,252,2.0,4.0,69,0.00,,,0.01,504,Wunderground v.1.15,2013-10-20 16:03:00,
2013-10-20 12:08:00,55.0,44.6,30.06,West,279,1.0,4.0,68,0.00,,,0.01,512,Wunderground v.1.15,2013-10-20 16:08:00,
2013-10-20 12:14:00,55.3,44.9,30.06,WSW,244,1.0,4.0,68,0.00,,,0.01,534,Wunderground v.1.15,2013-10-20 16:14:00,
2013-10-20 12:20:00,55.3,43.7,30.06,WSW,240,1.0,1.0,65,0.00,,,0.01,545,Wunderground v.1.15,2013-10-20 16:20:00,
2013-10-20 12:26:00,55.6,44.4,30.06,WSW,243,1.0,2.0,66,0.00,,,0.01,552,Wunderground v.1.15,2013-10-20 16:26:00,
2013-10-20 12:32:00,55.7,43.3,30.06,SSW,200,1.0,3.0,63,0.00,,,0.01,510,Wunderground v.1.15,2013-10-20 16:32:00,
2013-10-20 12:37:00,55.8,44.6,30.06,West,260,1.0,3.0,66,0.00,,,0.01,554,Wunderground v.1.15,2013-10-20 16:37:00,
2013-10-20 12:43:00,56.1,43.7,30.06,WSW,240,1.0,2.0,63,0.00,,,0.01,563,Wunderground v.1.15,2013-10-20 16:43:00,
2013-10-20 12:49:00,56.6,43.7,30.06,WSW,254,1.0,4.0,62,0.00,,,0.01,573,Wunderground v.1.15,2013-10-20 16:49:00,
2013-10-20 12:54:00,56.8,43.5,30.06,SW,223,2.0,7.0,61,0.00,,,0.01,568,Wunderground v.1.15,2013-10-20 16:54:00,
2013-10-20 13:00:00,56.7,43.4,30.06,WSW,255,3.0,3.0,61,0.00,,,0.01,97,Wunderground v.1.15,2013-10-20 17:00:00,
2013-10-20 13:06:00,56.2,43.8,30.06,WSW,253,2.0,5.0,63,0.00,,,0.01,591,Wunderground v.1.15,2013-10-20 17:06:00,
2013-10-20 13:12:00,56.4,43.5,30.05,West,277,1.0,1.0,62,0.00,,,0.01,584,Wunderground v.1.15,2013-10-20 17:12:00,
2013-10-20 13:17:00,56.7,44.7,30.05,WSW,241,1.0,6.0,64,0.00,,,0.01,603,Wunderground v.1.15,2013-10-20 17:17:00,
2013-10-20 13:23:00,56.8,42.6,30.05,SW,228,1.0,6.0,59,0.00,,,0.01,628,Wunderground v.1.15,2013-10-20 17:23:00,
2013-10-20 13:29:00,57.3,44.0,30.05,SW,234,2.0,6.0,61,0.00,,,0.01,603,Wunderground v.1.15,2013-10-20 17:29:00,
2013-10-20 13:34:00,57.6,43.8,30.05,WSW,256,2.0,7.0,60,0.00,,,0.01,589,Wunderground v.1.15,2013-10-20 17:34:00,
2013-10-20 13:39:00,57.6,43.8,30.04,WSW,239,3.0,7.0,60,0.00,,,0.01,578,Wunderground v.1.15,2013-10-20 17:39:00,
2013-10-20 13:45:00,57.2,43.0,30.04,SSW,201,2.0,3.0,59,0.00,,,0.01,584,Wunderground v.1.15,2013-10-20 17:45:00,
2013-10-20 13:51:00,56.8,43.5,30.03,WSW,242,2.0,2.0,61,0.00,,,0.01,584,Wunderground v.1.15,2013-10-20 17:51:00,
2013-10-20 13:56:00,56.9,42.7,30.03,SSW,209,2.0,6.0,59,0.00,,,0.01,578,Wunderground v.1.15,2013-10-20 17:56:00,
2013-10-20 14:02:00,57.3,43.5,30.03,WSW,247,2.0,2.0,60,0.00,,,0.01,554,Wunderground v.1.15,2013-10-20 18:02:00,
2013-10-20 14:08:00,57.7,43.5,30.03,SW,222,1.0,2.0,59,0.00,,,0.01,366,Wunderground v.1.15,2013-10-20 18:08:00,
2013-10-20 14:14:00,58.0,43.7,30.03,WSW,238,1.0,5.0,59,0.00,,,0.01,216,Wunderground v.1.15,2013-10-20 18:14:00,
2013-10-20 14:19:00,57.9,43.2,30.03,SW,219,2.0,5.0,58,0.00,,,0.01,320,Wunderground v.1.15,2013-10-20 18:19:00,
2013-10-20 14:25:00,57.6,42.9,30.03,SW,218,1.0,3.0,58,0.00,,,0.01,190,Wunderground v.1.15,2013-10-20 18:25:00,
2013-10-20 14:31:00,57.5,43.7,30.03,SW,225,1.0,7.0,60,0.00,,,-99.99,303,WeatherLink 6.0.3,2013-10-20 18:31:00,
2013-10-20 14:36:00,57.5,43.7,30.02,WNW,299,1.0,2.0,60,0.00,,,0.01,111,Wunderground v.1.15,2013-10-20 18:36:00,
2013-10-20 14:42:00,57.4,42.3,30.02,SSE,158,2.0,7.0,57,0.00,,,0.01,306,Wunderground v.1.15,2013-10-20 18:42:00,
2013-10-20 14:48:00,57.3,41.7,30.03,SSW,211,3.0,7.0,56,0.00,,,0.01,239,Wunderground v.1.15,2013-10-20 18:48:00,
2013-10-20 14:54:00,57.1,42.9,30.03,SSE,153,3.0,4.0,59,0.00,,,0.01,260,Wunderground v.1.15,2013-10-20 18:54:00,
2013-10-20 15:00:00,57.3,43.5,30.03,SSW,213,2.0,3.0,60,0.00,,,0.01,229,Wunderground v.1.15,2013-10-20 19:00:00,
2013-10-20 15:06:00,57.3,42.2,30.03,WSW,244,2.0,6.0,57,0.00,,,0.01,357,Wunderground v.1.15,2013-10-20 19:06:00,
2013-10-20 15:11:00,57.3,42.6,30.03,SSW,210,2.0,2.0,58,0.00,,,0.01,200,Wunderground v.1.15,2013-10-20 19:11:00,
2013-10-20 15:17:00,57.3,42.6,30.03,West,281,1.0,2.0,58,0.00,,,0.01,313,Wunderground v.1.15,2013-10-20 19:17:00,
2013-10-20 15:23:00,57.5,43.3,30.03,West,274,1.0,1.0,59,0.00,,,0.01,362,Wunderground v.1.15,2013-10-20 19:23:00,
2013-10-20 15:29:00,57.8,42.7,30.03,SW,224,1.0,2.0,57,0.00,,,0.01,174,Wunderground v.1.15,2013-10-20 19:29:00,
2013-10-20 15:35:00,58.0,42.4,30.04,SW,221,1.0,2.0,56,0.00,,,0.01,139,Wunderground v.1.15,2013-10-20 19:35:00,
2013-10-20 15:41:00,57.5,41.4,30.03,SW,221,2.0,2.0,55,0.00,,,0.01,160,Wunderground v.1.15,2013-10-20 19:41:00,
2013-10-20 15:47:00,57.1,43.3,30.03,SW,220,1.0,2.0,60,0.00,,,0.01,151,Wunderground v.1.15,2013-10-20 19:47:00,
2013-10-20 15:53:00,57.0,42.4,30.03,SW,234,0.0,4.0,58,0.00,,,0.01,111,Wunderground v.1.15,2013-10-20 19:53:00,
2013-10-20 15:59:00,56.8,42.2,30.04,WSW,252,1.0,4.0,58,0.00,,,0.01,128,Wunderground v.1.15,2013-10-20 19:59:00,
2013-10-20 16:04:00,56.7,43.0,30.04,WSW,242,1.0,1.0,60,0.00,,,0.01,128,Wunderground v.1.15,2013-10-20 20:04:00,
2013-10-20 16:09:00,56.8,42.6,30.04,West,268,0.0,1.0,59,0.00,,,0.01,120,Wunderground v.1.15,2013-10-20 20:09:00,
2013-10-20 16:15:00,56.8,43.1,30.04,SSE,157,1.0,4.0,60,0.00,,,0.01,74,Wunderground v.1.15,2013-10-20 20:15:00,
2013-10-20 16:21:00,56.8,43.1,30.03,WSW,250,1.0,2.0,60,0.00,,,0.01,155,Wunderground v.1.15,2013-10-20 20:21:00,
2013-10-20 16:26:00,56.9,42.7,30.03,West,259,1.0,2.0,59,0.00,,,0.01,149,Wunderground v.1.15,2013-10-20 20:26:00,
2013-10-20 16:31:00,57.0,42.4,30.03,WSW,247,1.0,7.0,58,0.00,,,-99.99,127,WeatherLink 6.0.3,2013-10-20 20:31:00,
2013-10-20 16:36:00,57.1,42.0,30.03,SW,225,1.0,3.0,57,0.00,,,0.01,188,Wunderground v.1.15,2013-10-20 20:36:00,
2013-10-20 16:42:00,57.2,42.5,30.03,SSW,211,1.0,4.0,58,0.00,,,0.01,237,Wunderground v.1.15,2013-10-20 20:42:00,
2013-10-20 16:48:00,57.3,42.2,30.03,SW,217,1.0,4.0,57,0.00,,,0.01,197,Wunderground v.1.15,2013-10-20 20:48:00,
2013-10-20 16:53:00,57.3,43.1,30.04,SSW,211,1.0,2.0,59,0.00,,,0.01,153,Wunderground v.1.15,2013-10-20 20:53:00,
2013-10-20 16:59:00,57.1,42.0,30.04,SW,221,1.0,7.0,57,0.00,,,0.01,53,Wunderground v.1.15,2013-10-20 20:59:00,
2013-10-20 17:05:00,56.9,42.7,30.03,SW,220,1.0,2.0,59,0.00,,,0.01,76,Wunderground v.1.15,2013-10-20 21:05:00,
2013-10-20 17:10:00,56.6,41.5,30.04,SW,216,1.0,1.0,57,0.00,,,0.01,84,Wunderground v.1.15,2013-10-20 21:10:00,
2013-10-20 17:16:00,56.4,43.5,30.04,SW,216,1.0,1.0,62,0.00,,,0.01,72,Wunderground v.1.15,2013-10-20 21:16:00,
2013-10-20 17:22:00,56.2,42.9,30.04,SW,227,0.0,0.0,61,0.00,,,0.01,62,Wunderground v.1.15,2013-10-20 21:22:00,
2013-10-20 17:27:00,56.1,42.0,30.04,SSW,193,1.0,3.0,59,0.00,,,0.01,62,Wunderground v.1.15,2013-10-20 21:27:00,
2013-10-20 17:33:00,56.0,43.2,30.04,SSW,193,0.0,1.0,62,0.00,,,0.01,69,Wunderground v.1.15,2013-10-20 21:33:00,
2013-10-20 17:39:00,56.0,43.6,30.04,SSW,194,0.0,1.0,63,0.00,,,0.01,81,Wunderground v.1.15,2013-10-20 21:39:00,
2013-10-20 17:45:00,55.9,43.1,30.04,SSW,194,0.0,1.0,62,0.00,,,0.01,32,Wunderground v.1.15,2013-10-20 21:45:00,
2013-10-20 17:51:00,55.7,42.9,30.04,SSW,194,0.0,0.0,62,0.00,,,0.01,23,Wunderground v.1.15,2013-10-20 21:51:00,
2013-10-20 17:56:00,55.3,42.5,30.04,WSW,240,0.0,1.0,62,0.00,,,0.01,19,Wunderground v.1.15,2013-10-20 21:56:00,
2013-10-20 18:02:00,55.0,43.0,30.04,SW,215,0.0,1.0,64,0.00,,,0.01,18,Wunderground v.1.15,2013-10-20 22:02:00,
2013-10-20 18:08:00,54.4,42.9,30.04,SW,215,0.0,1.0,65,0.00,,,0.01,14,Wunderground v.1.15,2013-10-20 22:08:00,
2013-10-20 18:13:00,54.0,43.3,30.04,SW,215,0.0,0.0,67,0.00,,,0.01,12,Wunderground v.1.15,2013-10-20 22:13:00,
2013-10-20 18:18:00,53.6,43.3,30.04,SW,215,0.0,0.0,68,0.00,,,0.01,11,Wunderground v.1.15,2013-10-20 22:18:00,
2013-10-20 18:24:00,53.0,43.1,30.04,SW,215,0.0,0.0,69,0.00,,,0.01,7,Wunderground v.1.15,2013-10-20 22:24:00,
2013-10-20 18:30:00,52.3,43.2,30.04,SW,215,0.0,0.0,71,0.00,,,0.01,5,Wunderground v.1.15,2013-10-20 22:30:00,
2013-10-20 18:35:00,51.7,43.7,30.04,SW,215,0.0,0.0,74,0.00,,,0.01,0,Wunderground v.1.15,2013-10-20 22:35:00,
2013-10-20 18:41:00,51.0,43.0,30.05,SW,215,0.0,0.0,74,0.00,,,0.01,0,Wunderground v.1.15,2013-10-20 22:41:00,
2013-10-20 18:46:00,50.3,42.3,30.05,SW,215,0.0,0.0,74,0.00,,,0.01,0,Wunderground v.1.15,2013-10-20 22:46:00,
2013-10-20 18:52:00,49.5,42.2,30.05,SW,215,0.0,0.0,76,0.00,,,0.01,0,Wunderground v.1.15,2013-10-20 22:52:00,
2013-10-20 18:58:00,48.8,42.2,30.05,SW,215,0.0,0.0,78,0.00,,,0.01,0,Wunderground v.1.15,2013-10-20 22:58:00,
2013-10-20 19:04:00,48.1,41.6,30.05,SW,215,0.0,0.0,78,0.00,,,0.01,0,Wunderground v.1.15,2013-10-20 23:04:00,
2013-10-20 19:10:00,47.4,41.2,30.05,SW,215,0.0,0.0,79,0.00,,,0.01,0,Wunderground v.1.15,2013-10-20 23:10:00,
2013-10-20 19:16:00,46.8,41.0,30.06,SW,215,0.0,0.0,80,0.00,,,0.01,0,Wunderground v.1.15,2013-10-20 23:16:00,
2013-10-20 19:22:00,46.4,41.2,30.06,SW,215,0.0,0.0,82,0.00,,,0.01,0,Wunderground v.1.15,2013-10-20 23:22:00,
2013-10-20 19:28:00,45.9,41.0,30.06,SW,215,0.0,0.0,83,0.00,,,0.01,0,Wunderground v.1.15,2013-10-20 23:28:00,
2013-10-20 19:33:00,45.5,40.9,30.06,SW,215,0.0,0.0,84,0.00,,,0.01,0,Wunderground v.1.15,2013-10-20 23:33:00,
2013-10-20 19:39:00,45.0,40.5,30.06,SW,215,0.0,0.0,84,0.00,,,0.01,0,Wunderground v.1.15,2013-10-20 23:39:00,
2013-10-20 19:45:00,44.7,40.5,30.06,SW,215,0.0,0.0,85,0.00,,,0.01,0,Wunderground v.1.15,2013-10-20 23:45:00,
2013-10-20 19:50:00,44.4,40.5,30.06,SW,215,0.0,0.0,86,0.00,,,0.01,0,Wunderground v.1.15,2013-10-20 23:50:00,
2013-10-20 19:56:00,44.1,40.2,30.07,SW,215,0.0,0.0,86,0.00,,,0.01,0,Wunderground v.1.15,2013-10-20 23:56:00,
2013-10-20 20:02:00,43.7,39.8,30.07,SW,215,0.0,0.0,86,0.00,,,0.01,0,Wunderground v.1.15,2013-10-21 00:02:00,
2013-10-20 20:08:00,43.4,39.8,30.07,SW,215,0.0,0.0,87,0.00,,,0.01,0,Wunderground v.1.15,2013-10-21 00:08:00,
2013-10-20 20:14:00,43.1,39.8,30.07,SW,215,0.0,0.0,88,0.00,,,0.01,0,Wunderground v.1.15,2013-10-21 00:14:00,
2013-10-20 20:20:00,42.8,39.5,30.07,SW,215,0.0,0.0,88,0.00,,,0.01,0,Wunderground v.1.15,2013-10-21 00:20:00,
2013-10-20 20:26:00,42.5,39.5,30.07,SW,215,0.0,0.0,89,0.00,,,0.01,0,Wunderground v.1.15,2013-10-21 00:26:00,
2013-10-20 20:32:00,42.3,39.3,30.07,SW,215,0.0,0.0,89,0.00,,,0.01,0,Wunderground v.1.15,2013-10-21 00:32:00,
2013-10-20 20:38:00,42.0,39.3,30.07,SW,215,0.0,0.0,90,0.00,,,0.01,0,Wunderground v.1.15,2013-10-21 00:38:00,
2013-10-20 20:43:00,41.9,39.2,30.07,SW,215,0.0,0.0,90,0.00,,,0.01,0,Wunderground v.1.15,2013-10-21 00:43:00,
2013-10-20 20:49:00,41.7,39.0,30.07,SW,215,0.0,0.0,90,0.00,,,0.01,0,Wunderground v.1.15,2013-10-21 00:49:00,
2013-10-20 20:55:00,41.5,38.8,30.07,SW,215,0.0,0.0,90,0.00,,,0.01,0,Wunderground v.1.15,2013-10-21 00:55:00,
2013-10-20 21:01:00,41.3,38.9,30.07,North,-999,0.0,0.0,91,0.00,,,-99.99,0,WeatherLink 6.0.3,2013-10-21 01:01:00,
2013-10-20 21:07:00,41.1,38.7,30.07,SW,215,0.0,0.0,91,0.00,,,0.01,0,Wunderground v.1.15,2013-10-21 01:07:00,
2013-10-20 21:13:00,40.9,38.5,30.08,SW,215,0.0,0.0,91,0.00,,,0.01,0,Wunderground v.1.15,2013-10-21 01:13:00,
2013-10-20 21:19:00,40.7,38.6,30.08,SW,215,0.0,0.0,92,0.00,,,0.01,0,Wunderground v.1.15,2013-10-21 01:19:00,
2013-10-20 21:25:00,40.5,38.4,30.08,SW,215,0.0,0.0,92,0.00,,,0.01,0,Wunderground v.1.15,2013-10-21 01:25:00,
2013-10-20 21:31:00,40.4,38.3,30.08,North,-999,0.0,0.0,92,0.00,,,-99.99,0,WeatherLink 6.0.3,2013-10-21 01:31:00,
2013-10-20 21:36:00,40.3,38.2,30.08,SW,215,0.0,0.0,92,0.00,,,0.01,0,Wunderground v.1.15,2013-10-21 01:36:00,
2013-10-20 21:42:00,40.1,38.0,30.08,SW,215,0.0,0.0,92,0.00,,,0.01,0,Wunderground v.1.15,2013-10-21 01:42:00,
2013-10-20 21:48:00,39.9,37.8,30.08,SW,215,0.0,0.0,92,0.00,,,0.01,0,Wunderground v.1.15,2013-10-21 01:48:00,
2013-10-20 21:53:00,39.8,37.9,30.08,SW,215,0.0,0.0,93,0.00,,,0.01,0,Wunderground v.1.15,2013-10-21 01:53:00,
2013-10-20 22:00:00,39.7,37.8,30.08,SW,215,0.0,0.0,93,0.00,,,0.01,0,Wunderground v.1.15,2013-10-21 02:00:00,
2013-10-20 22:05:00,39.5,37.6,30.08,SW,215,0.0,0.0,93,0.00,,,0.01,0,Wunderground v.1.15,2013-10-21 02:05:00,
2013-10-20 22:10:00,39.4,37.5,30.08,SW,215,0.0,0.0,93,0.00,,,0.01,0,Wunderground v.1.15,2013-10-21 02:10:00,
2013-10-20 22:16:00,39.3,37.4,30.08,SW,215,0.0,0.0,93,0.00,,,0.01,0,Wunderground v.1.15,2013-10-21 02:16:00,
2013-10-20 22:21:00,39.2,37.3,30.08,SW,215,0.0,0.0,93,0.00,,,0.01,0,Wunderground v.1.15,2013-10-21 02:21:00,
2013-10-20 22:26:00,39.0,37.1,30.08,SW,215,0.0,0.0,93,0.00,,,0.01,0,Wunderground v.1.15,2013-10-21 02:26:00,
2013-10-20 22:31:00,38.9,37.0,30.08,SW,215,0.0,0.0,93,0.00,,,0.01,0,Wunderground v.1.15,2013-10-21 02:31:00,
2013-10-20 22:37:00,38.7,36.9,30.08,SW,215,0.0,0.0,93,0.00,,,0.01,0,Wunderground v.1.15,2013-10-21 02:37:00,
2013-10-20 22:43:00,38.6,36.8,30.07,SW,215,0.0,0.0,93,0.00,,,0.01,0,Wunderground v.1.15,2013-10-21 02:43:00,
2013-10-20 22:49:00,38.5,36.9,30.08,SW,215,0.0,0.0,94,0.00,,,0.01,0,Wunderground v.1.15,2013-10-21 02:49:00,
2013-10-20 22:55:00,38.5,36.9,30.08,SW,215,0.0,0.0,94,0.00,,,0.01,0,Wunderground v.1.15,2013-10-21 02:55:00,
2013-10-20 23:00:00,38.4,36.8,30.08,SW,215,0.0,0.0,94,0.00,,,0.01,0,Wunderground v.1.15,2013-10-21 03:00:00,
2013-10-20 23:06:00,38.3,36.7,30.08,SW,215,0.0,0.0,94,0.00,,,0.01,0,Wunderground v.1.15,2013-10-21 03:06:00,
2013-10-20 23:12:00,38.2,36.6,30.08,SW,215,0.0,0.0,94,0.00,,,0.01,0,Wunderground v.1.15,2013-10-21 03:12:00,
2013-10-20 23:18:00,38.2,36.6,30.08,SW,215,0.0,0.0,94,0.00,,,0.01,0,Wunderground v.1.15,2013-10-21 03:18:00,
2013-10-20 23:23:00,38.1,36.5,30.08,SW,215,0.0,0.0,94,0.00,,,0.01,0,Wunderground v.1.15,2013-10-21 03:23:00,
2013-10-20 23:29:00,38.0,36.4,30.08,SW,215,0.0,0.0,94,0.00,,,0.01,0,Wunderground v.1.15,2013-10-21 03:29:00,
2013-10-20 23:35:00,37.9,36.3,30.08,SW,215,0.0,0.0,94,0.00,,,0.01,0,Wunderground v.1.15,2013-10-21 03:35:00,
2013-10-20 23:40:00,37.9,36.3,30.08,SW,215,0.0,0.0,94,0.00,,,0.01,0,Wunderground v.1.15,2013-10-21 03:40:00,
2013-10-20 23:45:00,37.8,36.2,30.08,SW,215,0.0,0.0,94,0.00,,,0.01,0,Wunderground v.1.15,2013-10-21 03:45:00,
2013-10-20 23:50:00,37.7,36.1,30.08,SW,215,0.0,0.0,94,0.00,,,0.01,0,Wunderground v.1.15,2013-10-21 03:50:00,
2013-10-20 23:55:00,37.5,35.9,30.08,SW,215,0.0,0.0,94,0.00,,,0.01,0,Wunderground v.1.15,2013-10-21 03:55:00,